Time;durP1;ratioP1;P1;durP2;ratioP2;P2;SDS_P1;SDS_P2;PMS_P1;PMS_P2;Temp;Humidity;BMP_temperature;BMP_pressure;BME280_temperature;BME280_humidity;BME280_pressure;Samples;Min_cycle;Max_cycle;Signal;HPM_P1;HPM_P2
2022/10/14 00:01:09;;;;;;;14.82;8.35;;;;;;;;;;5083439;28;20476;-58
2022/10/14 00:03:34;;;;;;;20.10;9.63;;;;;;;;;;5092390;28;20028;-58
2022/10/14 00:06:02;;;;;;;17.85;8.30;;;;;;;;;;5091388;28;20048;-58
2022/10/14 00:08:27;;;;;;;16.52;7.68;;;;;;;;;;5092304;28;20098;-58
2022/10/14 00:10:52;;;;;;;13.15;7.20;;;;;;;;;;5090430;28;20439;-58
2022/10/14 00:13:19;;;;;;;16.02;8.55;;;;;;;;;;5095300;28;20036;-58
2022/10/14 00:15:44;;;;;;;17.02;8.00;;;;;;;;;;5087635;28;20023;-58
2022/10/14 00:18:09;;;;;;;17.67;8.57;;;;;;;;;;5094148;28;20039;-58
2022/10/14 00:20:35;;;;;;;17.48;8.52;;;;;;;;;;5088877;28;20029;-58
2022/10/14 00:23:00;;;;;;;17.52;8.65;;;;;;;;;;5085155;28;20063;-57
2022/10/14 00:25:25;;;;;;;15.57;8.65;;;;;;;;;;5096490;28;20048;-58
2022/10/14 00:27:51;;;;;;;20.45;9.10;;;;;;;;;;5092119;28;20423;-57
2022/10/14 00:30:16;;;;;;;16.17;8.60;;;;;;;;;;5081324;28;20665;-58
2022/10/14 00:32:41;;;;;;;12.90;8.73;;;;;;;;;;5091306;28;20036;-57
2022/10/14 00:35:06;;;;;;;16.27;9.27;;;;;;;;;;5078322;28;20066;-58
2022/10/14 00:37:32;;;;;;;15.90;7.20;;;;;;;;;;5092106;28;20066;-58
2022/10/14 00:39:57;;;;;;;15.40;8.00;;;;;;;;;;5084122;28;20008;-58
2022/10/14 00:42:22;;;;;;;12.80;8.40;;;;;;;;;;5089591;28;20407;-57
2022/10/14 00:44:47;;;;;;;16.88;8.95;;;;;;;;;;5087071;28;20119;-57
2022/10/14 00:47:13;;;;;;;16.77;8.57;;;;;;;;;;5085593;28;20024;-57
2022/10/14 00:49:39;;;;;;;15.63;8.95;;;;;;;;;;5089279;28;20031;-57
2022/10/14 00:52:14;;;;;;;19.35;9.40;;;;;;;;;;5093807;28;20043;-57
2022/10/14 00:54:47;;;;;;;17.00;9.32;;;;;;;;;;5087107;28;20016;-58
2022/10/14 00:57:12;;;;;;;22.65;9.57;;;;;;;;;;5098521;28;20034;-57
2022/10/14 00:59:38;;;;;;;15.70;8.68;;;;;;;;;;5091979;28;20420;-57
2022/10/14 01:02:03;;;;;;;18.88;9.43;;;;;;;;;;5090739;28;20016;-57
2022/10/14 01:04:28;;;;;;;21.50;10.18;;;;;;;;;;5092096;28;20040;-57
2022/10/14 01:07:20;;;;;;;24.55;9.60;;;;;;;;;;5089790;28;20407;-57
2022/10/14 01:09:48;;;;;;;19.85;9.02;;;;;;;;;;5051032;28;20373;-57
2022/10/14 01:12:13;;;;;;;16.13;8.82;;;;;;;;;;5094532;28;20047;-57
2022/10/14 01:14:38;;;;;;;18.30;8.52;;;;;;;;;;5087666;28;20413;-57
2022/10/14 01:17:13;;;;;;;16.40;8.93;;;;;;;;;;5093691;28;20039;-57
2022/10/14 01:19:56;;;;;;;14.35;9.05;;;;;;;;;;5072198;28;20126;-57
2022/10/14 01:22:24;;;;;;;19.33;9.27;;;;;;;;;;5079075;28;20027;-57
2022/10/14 01:25:04;;;;;;;14.45;8.48;;;;;;;;;;5069529;28;20099;-57
2022/10/14 01:27:29;;;;;;;;;;;;;;;;;;5085967;28;20024;-57
2022/10/14 01:30:07;;;;;;;14.32;7.43;;;;;;;;;;5082979;28;19912;-57
2022/10/14 01:32:35;;;;;;;20.77;9.55;;;;;;;;;;5090478;28;20024;-57
2022/10/14 01:35:02;;;;;;;20.65;9.60;;;;;;;;;;5088249;28;20035;-57
2022/10/14 01:37:28;;;;;;;15.50;8.65;;;;;;;;;;5086699;28;20025;-57
2022/10/14 01:39:54;;;;;;;28.02;9.82;;;;;;;;;;5089203;28;20504;-57
2022/10/14 01:42:21;;;;;;;20.95;10.13;;;;;;;;;;5093573;28;20020;-57
2022/10/14 01:44:48;;;;;;;19.58;9.90;;;;;;;;;;5090494;28;20020;-57
2022/10/14 01:47:14;;;;;;;24.13;10.68;;;;;;;;;;5087276;28;20636;-57
2022/10/14 01:49:44;;;;;;;14.77;8.77;;;;;;;;;;5086679;28;20035;-57
2022/10/14 01:52:10;;;;;;;19.73;9.20;;;;;;;;;;5083463;28;20093;-56
2022/10/14 01:54:36;;;;;;;18.55;8.95;;;;;;;;;;5083855;28;20438;-58
2022/10/14 01:57:02;;;;;;;15.68;9.00;;;;;;;;;;5093939;28;20058;-57
2022/10/14 01:59:28;;;;;;;17.85;8.93;;;;;;;;;;5086146;28;20047;-57
2022/10/14 02:01:53;;;;;;;20.50;9.65;;;;;;;;;;5081682;28;20041;-58
2022/10/14 02:04:19;;;;;;;18.88;9.40;;;;;;;;;;5089541;28;20089;-57
2022/10/14 02:07:04;;;;;;;19.50;9.45;;;;;;;;;;5088695;28;20024;-57
2022/10/14 02:09:45;;;;;;;15.45;9.10;;;;;;;;;;5084437;28;20425;-57
2022/10/14 02:12:13;;;;;;;19.27;9.45;;;;;;;;;;5086067;28;20052;-57
2022/10/14 02:14:43;;;;;;;16.60;9.43;;;;;;;;;;5079825;28;20016;-57
2022/10/14 02:17:10;;;;;;;21.25;8.98;;;;;;;;;;5091664;28;20021;-57
2022/10/14 02:19:41;;;;;;;21.20;9.75;;;;;;;;;;5092028;28;20032;-57
2022/10/14 02:22:15;;;;;;;21.83;10.50;;;;;;;;;;5090657;28;20099;-57
2022/10/14 02:24:41;;;;;;;19.52;9.40;;;;;;;;;;5072808;28;20673;-57
2022/10/14 02:27:08;;;;;;;23.00;9.35;;;;;;;;;;5091312;28;20030;-57
2022/10/14 02:29:33;;;;;;;19.48;9.40;;;;;;;;;;5096528;28;20027;-57
2022/10/14 02:31:58;;;;;;;16.17;9.43;;;;;;;;;;5085499;28;20021;-57
2022/10/14 02:34:24;;;;;;;25.10;9.70;;;;;;;;;;5076890;28;20012;-57
2022/10/14 02:36:49;;;;;;;19.10;9.05;;;;;;;;;;5074603;28;20454;-57
2022/10/14 02:39:15;;;;;;;20.95;9.13;;;;;;;;;;5092464;28;20015;-57
2022/10/14 02:41:40;;;;;;;19.45;9.45;;;;;;;;;;5091671;28;20016;-58
2022/10/14 02:44:06;;;;;;;22.80;9.25;;;;;;;;;;5103531;28;20016;-57
2022/10/14 02:46:31;;;;;;;19.60;8.88;;;;;;;;;;5092820;28;20032;-57
2022/10/14 02:48:56;;;;;;;15.68;8.23;;;;;;;;;;5091069;28;20031;-57
2022/10/14 02:51:21;;;;;;;18.25;9.65;;;;;;;;;;5088192;28;20533;-57
2022/10/14 02:53:47;;;;;;;20.20;8.85;;;;;;;;;;5087186;28;20032;-58
2022/10/14 02:56:12;;;;;;;16.25;8.57;;;;;;;;;;5097237;28;20078;-58
2022/10/14 02:58:37;;;;;;;16.00;7.55;;;;;;;;;;5094201;28;20024;-58
2022/10/14 03:01:02;;;;;;;23.25;8.70;;;;;;;;;;5084889;28;20024;-57
2022/10/14 03:03:28;;;;;;;16.30;8.10;;;;;;;;;;5082148;28;20016;-57
2022/10/14 03:05:53;;;;;;;15.82;8.05;;;;;;;;;;5079438;28;20057;-57
2022/10/14 03:08:18;;;;;;;14.48;8.15;;;;;;;;;;5082229;28;20068;-55
2022/10/14 03:10:46;;;;;;;18.23;8.68;;;;;;;;;;5092265;28;20162;-57
2022/10/14 03:13:12;;;;;;;16.15;8.45;;;;;;;;;;5092901;28;20036;-56
2022/10/14 03:15:37;;;;;;;16.50;8.15;;;;;;;;;;5091341;28;20020;-57
2022/10/14 03:18:02;;;;;;;16.05;8.02;;;;;;;;;;5090204;28;20027;-57
2022/10/14 03:20:27;;;;;;;16.15;8.43;;;;;;;;;;5093968;28;20023;-57
2022/10/14 03:22:53;;;;;;;16.35;7.90;;;;;;;;;;5088006;28;20027;-57
2022/10/14 03:25:18;;;;;;;16.42;8.70;;;;;;;;;;5092237;28;20023;-57
2022/10/14 03:27:43;;;;;;;17.67;8.05;;;;;;;;;;5095712;28;20068;-58
2022/10/14 03:30:09;;;;;;;16.67;8.05;;;;;;;;;;5094943;28;20390;-57
2022/10/14 03:32:34;;;;;;;17.55;8.13;;;;;;;;;;5076924;28;20053;-57
2022/10/14 03:35:00;;;;;;;15.05;7.95;;;;;;;;;;5082765;28;20098;-57
2022/10/14 03:37:25;;;;;;;16.45;8.02;;;;;;;;;;5078159;28;20019;-57
2022/10/14 03:39:51;;;;;;;19.13;7.68;;;;;;;;;;5081490;28;20162;-57
2022/10/14 03:42:17;;;;;;;17.33;8.27;;;;;;;;;;5095409;28;20027;-58
2022/10/14 03:44:43;;;;;;;15.52;8.13;;;;;;;;;;5088962;28;20028;-57
2022/10/14 03:47:08;;;;;;;15.82;7.72;;;;;;;;;;5094802;28;20128;-57
2022/10/14 03:49:34;;;;;;;18.23;8.30;;;;;;;;;;5090514;28;20082;-57
2022/10/14 03:51:59;;;;;;;21.67;8.32;;;;;;;;;;5083735;28;20039;-57
2022/10/14 03:54:24;;;;;;;18.52;8.55;;;;;;;;;;5094091;28;20111;-57
2022/10/14 03:56:49;;;;;;;22.00;8.95;;;;;;;;;;5092861;28;20059;-57
2022/10/14 03:59:15;;;;;;;20.65;8.25;;;;;;;;;;5095163;28;20055;-57
2022/10/14 04:01:40;;;;;;;15.30;8.98;;;;;;;;;;5089780;28;20470;-57
2022/10/14 04:04:05;;;;;;;18.00;8.90;;;;;;;;;;5093413;28;20089;-57
2022/10/14 04:06:31;;;;;;;17.63;8.73;;;;;;;;;;5087682;28;20030;-57
2022/10/14 04:08:56;;;;;;;21.67;9.20;;;;;;;;;;5087674;28;20518;-57
2022/10/14 04:11:22;;;;;;;16.90;9.75;;;;;;;;;;5094125;28;20028;-56
2022/10/14 04:13:47;;;;;;;20.35;9.75;;;;;;;;;;5092725;28;20028;-58
2022/10/14 04:16:12;;;;;;;19.27;8.73;;;;;;;;;;5099434;28;20014;-62
2022/10/14 04:18:37;;;;;;;18.02;8.82;;;;;;;;;;5089691;28;20527;-59
2022/10/14 04:21:04;;;;;;;21.77;9.82;;;;;;;;;;5095094;28;20107;-57
2022/10/14 04:23:29;;;;;;;19.83;8.82;;;;;;;;;;5084804;28;20076;-59
2022/10/14 04:25:54;;;;;;;20.92;8.82;;;;;;;;;;5090201;28;20031;-56
2022/10/14 04:28:20;;;;;;;18.58;8.45;;;;;;;;;;5082262;28;20024;-57
2022/10/14 04:30:45;;;;;;;22.95;9.32;;;;;;;;;;5081537;28;20025;-56
2022/10/14 04:33:10;;;;;;;16.80;8.63;;;;;;;;;;5089203;28;20023;-56
2022/10/14 04:35:36;;;;;;;21.50;8.48;;;;;;;;;;5089793;28;20071;-55
2022/10/14 04:38:01;;;;;;;16.58;9.18;;;;;;;;;;5092538;28;20024;-56
2022/10/14 04:40:26;;;;;;;13.48;8.82;;;;;;;;;;5081438;28;20016;-57
2022/10/14 04:42:55;;;;;;;18.95;9.02;;;;;;;;;;5082783;28;20055;-56
2022/10/14 04:45:20;;;;;;;18.20;8.80;;;;;;;;;;5091047;28;20393;-57
2022/10/14 04:47:45;;;;;;;16.63;8.50;;;;;;;;;;5086957;28;20020;-57
2022/10/14 04:50:11;;;;;;;14.27;7.07;;;;;;;;;;5088282;28;20107;-61
2022/10/14 04:52:36;;;;;;;16.55;7.57;;;;;;;;;;5089088;28;20320;-57
2022/10/14 04:55:02;;;;;;;17.23;7.85;;;;;;;;;;5078687;28;20485;-57
2022/10/14 04:57:27;;;;;;;12.65;7.10;;;;;;;;;;5086775;28;20489;-57
2022/10/14 04:59:52;;;;;;;17.65;7.10;;;;;;;;;;5093573;28;20020;-57
2022/10/14 05:02:18;;;;;;;17.33;8.00;;;;;;;;;;5083180;28;20024;-57
2022/10/14 05:04:43;;;;;;;11.75;6.95;;;;;;;;;;5092485;28;20052;-57
2022/10/14 05:07:08;;;;;;;10.80;6.75;;;;;;;;;;5083978;28;20024;-56
2022/10/14 05:09:33;;;;;;;12.07;6.63;;;;;;;;;;5087734;28;20028;-57
2022/10/14 05:11:59;;;;;;;11.75;6.80;;;;;;;;;;5087159;28;20700;-57
2022/10/14 05:14:24;;;;;;;11.55;6.93;;;;;;;;;;5094398;28;20020;-56
2022/10/14 05:16:49;;;;;;;13.73;6.50;;;;;;;;;;5090846;28;20103;-56
2022/10/14 05:19:14;;;;;;;12.45;6.20;;;;;;;;;;5092825;28;20138;-57
2022/10/14 05:21:40;;;;;;;15.18;6.80;;;;;;;;;;5080888;28;20154;-57
2022/10/14 05:24:05;;;;;;;11.23;6.47;;;;;;;;;;5079204;28;20108;-57
2022/10/14 05:26:30;;;;;;;11.90;6.00;;;;;;;;;;5074209;28;20017;-56
2022/10/14 05:28:56;;;;;;;16.60;7.97;;;;;;;;;;5073174;28;20110;-57
2022/10/14 05:31:21;;;;;;;17.02;6.38;;;;;;;;;;5071395;28;20031;-57
2022/10/14 05:33:46;;;;;;;10.80;6.80;;;;;;;;;;5080590;28;20123;-57
2022/10/14 05:36:11;;;;;;;11.43;6.80;;;;;;;;;;5071232;28;20016;-56
2022/10/14 05:38:37;;;;;;;19.00;7.45;;;;;;;;;;5082522;28;20013;-57
2022/10/14 05:41:02;;;;;;;14.82;6.90;;;;;;;;;;5087904;28;20024;-57
2022/10/14 05:43:27;;;;;;;19.08;7.07;;;;;;;;;;5084972;28;20020;-58
2022/10/14 05:45:52;;;;;;;14.32;7.03;;;;;;;;;;5087645;28;20027;-57
2022/10/14 05:48:18;;;;;;;12.95;7.00;;;;;;;;;;5083417;28;20096;-57
2022/10/14 05:50:43;;;;;;;12.90;6.63;;;;;;;;;;5086880;28;20024;-56
2022/10/14 05:53:09;;;;;;;19.08;6.70;;;;;;;;;;5083990;28;20123;-57
2022/10/14 05:55:34;;;;;;;11.65;6.95;;;;;;;;;;5087137;28;20492;-57
2022/10/14 05:57:59;;;;;;;16.98;7.05;;;;;;;;;;5092472;28;20153;-57
2022/10/14 06:00:25;;;;;;;19.77;6.78;;;;;;;;;;5092786;28;20109;-57
2022/10/14 06:02:50;;;;;;;12.52;6.68;;;;;;;;;;5086343;28;20483;-57
2022/10/14 06:05:16;;;;;;;19.52;7.75;;;;;;;;;;5094423;28;20116;-57
2022/10/14 06:07:41;;;;;;;13.07;7.30;;;;;;;;;;5096287;28;20111;-55
2022/10/14 06:10:06;;;;;;;14.68;8.15;;;;;;;;;;5093470;28;20103;-57
2022/10/14 06:12:32;;;;;;;15.02;7.25;;;;;;;;;;5089981;27;20143;-56
2022/10/14 06:14:57;;;;;;;17.35;7.90;;;;;;;;;;5100593;28;20020;-57
2022/10/14 06:17:22;;;;;;;14.05;7.60;;;;;;;;;;5087691;28;20048;-57
2022/10/14 06:19:47;;;;;;;13.45;7.45;;;;;;;;;;5085352;28;20020;-57
2022/10/14 06:22:13;;;;;;;12.43;7.05;;;;;;;;;;5090894;28;20020;-57
2022/10/14 06:24:38;;;;;;;12.40;7.13;;;;;;;;;;5092732;28;20023;-57
2022/10/14 06:27:03;;;;;;;13.32;7.13;;;;;;;;;;5097629;28;20020;-57
2022/10/14 06:29:36;;;;;;;11.48;7.22;;;;;;;;;;5094153;28;20015;-56
2022/10/14 06:32:01;;;;;;;13.13;6.88;;;;;;;;;;5085727;28;20028;-56
2022/10/14 06:34:26;;;;;;;13.63;7.00;;;;;;;;;;5085632;28;20101;-57
2022/10/14 06:36:52;;;;;;;13.10;6.38;;;;;;;;;;5102801;28;20023;-57
2022/10/14 06:39:17;;;;;;;11.38;7.03;;;;;;;;;;5090473;28;20024;-56
2022/10/14 06:41:42;;;;;;;15.23;7.18;;;;;;;;;;5095472;28;20012;-55
2022/10/14 06:44:07;;;;;;;18.80;6.88;;;;;;;;;;5094690;28;20028;-58
2022/10/14 06:46:33;;;;;;;13.35;6.82;;;;;;;;;;5083612;28;20437;-58
2022/10/14 06:48:58;;;;;;;13.70;6.95;;;;;;;;;;5094594;28;20020;-58
2022/10/14 06:51:23;;;;;;;13.25;6.63;;;;;;;;;;5093996;28;20460;-58
2022/10/14 06:53:48;;;;;;;17.70;9.00;;;;;;;;;;5091366;28;20024;-57
2022/10/14 06:56:14;;;;;;;13.45;7.75;;;;;;;;;;5082181;28;20008;-58
2022/10/14 06:58:39;;;;;;;15.40;9.10;;;;;;;;;;5085494;28;20515;-58
2022/10/14 07:01:05;;;;;;;14.18;8.63;;;;;;;;;;5085710;28;20039;-56
2022/10/14 07:03:30;;;;;;;15.73;9.48;;;;;;;;;;5098674;28;20037;-59
2022/10/14 07:05:56;;;;;;;12.43;7.70;;;;;;;;;;5088457;28;20298;-58
2022/10/14 07:08:21;;;;;;;14.80;7.50;;;;;;;;;;5096186;28;20482;-57
2022/10/14 07:10:46;;;;;;;15.77;8.50;;;;;;;;;;5092919;28;20019;-58
2022/10/14 07:13:11;;;;;;;14.10;8.35;;;;;;;;;;5092526;28;20072;-56
2022/10/14 07:15:37;;;;;;;20.45;8.98;;;;;;;;;;5092621;28;20047;-57
2022/10/14 07:18:03;;;;;;;16.95;10.05;;;;;;;;;;5087176;28;20029;-56
2022/10/14 07:20:28;;;;;;;19.65;10.98;;;;;;;;;;5092966;28;20670;-58
2022/10/14 07:22:54;;;;;;;23.60;11.57;;;;;;;;;;5088012;28;20624;-57
2022/10/14 07:25:19;;;;;;;27.45;12.10;;;;;;;;;;5086528;28;20026;-58
2022/10/14 07:27:44;;;;;;;21.98;11.55;;;;;;;;;;5093659;28;20043;-57
2022/10/14 07:30:10;;;;;;;21.55;12.43;;;;;;;;;;5086937;28;20047;-58
2022/10/14 07:32:35;;;;;;;22.88;12.18;;;;;;;;;;5084775;28;20044;-58
2022/10/14 07:35:01;;;;;;;28.42;12.55;;;;;;;;;;5100125;28;20020;-57
2022/10/14 07:37:26;;;;;;;28.00;14.82;;;;;;;;;;5078876;28;20024;-57
2022/10/14 07:39:51;;;;;;;27.55;15.60;;;;;;;;;;5091031;28;20019;-56
2022/10/14 07:42:17;;;;;;;30.23;15.40;;;;;;;;;;5093967;28;20417;-57
2022/10/14 07:44:42;;;;;;;27.00;14.27;;;;;;;;;;5086600;28;20055;-61
2022/10/14 07:47:07;;;;;;;32.08;15.80;;;;;;;;;;5087751;28;20029;-56
2022/10/14 07:49:32;;;;;;;28.13;14.73;;;;;;;;;;5087115;28;20354;-57
2022/10/14 07:51:58;;;;;;;25.60;14.40;;;;;;;;;;5091637;28;20042;-59
2022/10/14 07:54:24;;;;;;;25.50;14.43;;;;;;;;;;5088296;28;20058;-57
2022/10/14 07:56:49;;;;;;;28.15;15.20;;;;;;;;;;5082485;28;20430;-56
2022/10/14 07:59:15;;;;;;;27.98;14.93;;;;;;;;;;5091510;28;20023;-57
2022/10/14 08:01:41;;;;;;;27.15;14.90;;;;;;;;;;5111980;27;20015;-57
2022/10/14 08:04:07;;;;;;;26.67;15.15;;;;;;;;;;5095623;28;20159;-57
2022/10/14 08:06:32;;;;;;;28.15;14.63;;;;;;;;;;5090351;28;20488;-57
2022/10/14 08:08:57;;;;;;;29.85;15.40;;;;;;;;;;5093785;28;20363;-57
2022/10/14 08:11:23;;;;;;;27.60;15.82;;;;;;;;;;5096352;28;20027;-57
2022/10/14 08:13:48;;;;;;;24.23;13.65;;;;;;;;;;5095774;28;20027;-57
2022/10/14 08:16:17;;;;;;;23.85;13.98;;;;;;;;;;5090609;28;20031;-58
2022/10/14 08:18:43;;;;;;;23.15;13.68;;;;;;;;;;5088794;28;20032;-57
2022/10/14 08:21:08;;;;;;;22.63;13.65;;;;;;;;;;5081699;28;20040;-56
2022/10/14 08:23:33;;;;;;;25.70;14.45;;;;;;;;;;5085209;28;20035;-57
2022/10/14 08:25:59;;;;;;;27.05;14.60;;;;;;;;;;5083948;28;20096;-57
2022/10/14 08:28:24;;;;;;;22.13;13.95;;;;;;;;;;5084475;28;20086;-57
2022/10/14 08:30:51;;;;;;;25.48;14.82;;;;;;;;;;5093614;28;20027;-57
2022/10/14 08:33:16;;;;;;;26.90;14.13;;;;;;;;;;5087069;28;20538;-57
2022/10/14 08:35:42;;;;;;;23.20;14.23;;;;;;;;;;5094406;28;20023;-57
2022/10/14 08:38:07;;;;;;;21.88;14.50;;;;;;;;;;5082976;28;20521;-57
2022/10/14 08:40:35;;;;;;;23.23;13.75;;;;;;;;;;5089402;28;20175;-57
2022/10/14 08:43:03;;;;;;;22.92;14.13;;;;;;;;;;5087006;28;20032;-57
2022/10/14 08:45:33;;;;;;;23.23;14.88;;;;;;;;;;5087852;28;20023;-57
2022/10/14 08:47:58;;;;;;;21.42;13.45;;;;;;;;;;5091957;28;20107;-57
2022/10/14 08:50:25;;;;;;;22.30;13.70;;;;;;;;;;5093597;28;20122;-57
2022/10/14 08:52:59;;;;;;;21.65;13.13;;;;;;;;;;5088684;28;20495;-57
2022/10/14 08:55:26;;;;;;;23.58;14.43;;;;;;;;;;5088787;28;20028;-57
2022/10/14 08:57:53;;;;;;;23.08;13.18;;;;;;;;;;5087752;28;20556;-57
2022/10/14 09:00:18;;;;;;;21.77;13.63;;;;;;;;;;5088990;28;20028;-58
2022/10/14 09:02:45;;;;;;;19.30;12.82;;;;;;;;;;5086424;28;20020;-57
2022/10/14 09:05:16;;;;;;;21.17;12.18;;;;;;;;;;5089686;28;20062;-57
2022/10/14 09:07:42;;;;;;;21.85;11.80;;;;;;;;;;5089692;27;20030;-57
2022/10/14 09:10:10;;;;;;;21.65;11.75;;;;;;;;;;5089530;28;20372;-57
2022/10/14 09:12:35;;;;;;;19.80;11.43;;;;;;;;;;5073386;28;20115;-56
2022/10/14 09:15:07;;;;;;;19.25;11.00;;;;;;;;;;5082933;28;20059;-57
2022/10/14 09:17:34;;;;;;;18.45;10.55;;;;;;;;;;5094785;28;20016;-57
2022/10/14 09:20:14;;;;;;;17.02;9.75;;;;;;;;;;5081306;28;20020;-57
2022/10/14 09:22:40;;;;;;;18.88;9.63;;;;;;;;;;5086104;28;20012;-57
2022/10/14 09:25:10;;;;;;;15.27;8.88;;;;;;;;;;5086473;28;20023;-57
2022/10/14 09:27:35;;;;;;;13.38;7.75;;;;;;;;;;5089956;28;20012;-57
2022/10/14 09:30:03;;;;;;;18.25;8.85;;;;;;;;;;5081185;28;20067;-56
2022/10/14 09:32:28;;;;;;;14.68;7.75;;;;;;;;;;5084988;28;20036;-57
2022/10/14 09:34:53;;;;;;;15.70;8.30;;;;;;;;;;5087578;28;20055;-57
2022/10/14 09:37:26;;;;;;;13.43;8.32;;;;;;;;;;5090028;28;20027;-57
2022/10/14 09:39:52;;;;;;;13.65;8.13;;;;;;;;;;5082433;28;20110;-57
2022/10/14 09:42:23;;;;;;;16.10;8.55;;;;;;;;;;5082995;28;20063;-58
2022/10/14 09:45:05;;;;;;;18.40;8.85;;;;;;;;;;5093594;28;20039;-56
2022/10/14 09:47:30;;;;;;;15.80;8.27;;;;;;;;;;5085965;28;20544;-56
2022/10/14 09:49:58;;;;;;;13.35;7.60;;;;;;;;;;5093165;28;20043;-56
2022/10/14 09:52:23;;;;;;;11.40;7.63;;;;;;;;;;5084496;28;20084;-59
2022/10/14 09:54:52;;;;;;;15.57;7.85;;;;;;;;;;5082299;28;20386;-56
2022/10/14 09:57:18;;;;;;;14.75;8.10;;;;;;;;;;5070899;28;20069;-58
2022/10/14 09:59:53;;;;;;;16.90;7.90;;;;;;;;;;5092714;28;20097;-57
2022/10/14 10:02:33;;;;;;;14.27;7.55;;;;;;;;;;5088584;28;20024;-56
2022/10/14 10:05:04;;;;;;;16.73;7.40;;;;;;;;;;5083177;28;20607;-58
2022/10/14 10:07:33;;;;;;;14.32;7.93;;;;;;;;;;5082059;28;20032;-58
2022/10/14 10:09:59;;;;;;;14.80;7.95;;;;;;;;;;5085190;28;20058;-58
2022/10/14 10:12:28;;;;;;;13.90;7.25;;;;;;;;;;5089023;28;20544;-58
2022/10/14 10:15:02;;;;;;;15.63;8.00;;;;;;;;;;5095922;28;20039;-57
2022/10/14 10:17:29;;;;;;;11.10;7.43;;;;;;;;;;5088632;28;20024;-58
2022/10/14 10:20:06;;;;;;;16.17;7.78;;;;;;;;;;5076772;28;20145;-58
2022/10/14 10:22:35;;;;;;;12.07;7.68;;;;;;;;;;5083377;28;20298;-58
2022/10/14 10:25:01;;;;;;;13.60;7.93;;;;;;;;;;5092031;28;20470;-58
2022/10/14 10:27:35;;;;;;;13.95;7.20;;;;;;;;;;5089897;28;20624;-58
2022/10/14 10:30:16;;;;;;;12.18;7.35;;;;;;;;;;5079876;28;20471;-58
2022/10/14 10:33:01;;;;;;;12.27;6.75;;;;;;;;;;5089873;28;20147;-58
2022/10/14 10:35:38;;;;;;;12.10;7.30;;;;;;;;;;5048448;28;20034;-58
2022/10/14 10:38:15;;;;;;;11.90;6.07;;;;;;;;;;5081482;28;20092;-58
2022/10/14 10:40:54;;;;;;;13.43;6.88;;;;;;;;;;5088440;28;20020;-57
2022/10/14 10:43:19;;;;;;;11.60;6.60;;;;;;;;;;5090949;28;20252;-57
2022/10/14 10:45:44;;;;;;;10.48;6.00;;;;;;;;;;5082024;28;20028;-57
2022/10/14 10:48:13;;;;;;;12.23;6.15;;;;;;;;;;5100228;28;20226;-57
2022/10/14 10:50:44;;;;;;;10.38;6.97;;;;;;;;;;5091619;28;20023;-57
2022/10/14 10:53:09;;;;;;;12.93;6.90;;;;;;;;;;5097963;28;20385;-57
2022/10/14 10:55:39;;;;;;;7.57;5.43;;;;;;;;;;5082051;28;20020;-57
2022/10/14 10:58:26;;;;;;;38.80;26.50;;;;;;;;;;5093417;28;20114;-57
2022/10/14 11:01:03;;;;;;;11.60;7.45;;;;;;;;;;5093668;28;20032;-57
2022/10/14 11:03:41;;;;;;;12.57;7.68;;;;;;;;;;5085188;28;20016;-57
2022/10/14 11:06:07;;;;;;;8.82;4.72;;;;;;;;;;5090476;28;20044;-57
2022/10/14 11:14:33;;;;;;;9.15;4.90;;;;;;;;;;5091091;28;20396;-57
2022/10/14 11:17:01;;;;;;;7.82;4.18;;;;;;;;;;5089197;28;20501;-56
2022/10/14 11:19:29;;;;;;;8.75;4.80;;;;;;;;;;5083954;28;20016;-57
2022/10/14 11:22:15;;;;;;;10.10;5.75;;;;;;;;;;5083571;28;20047;-58
2022/10/14 11:24:59;;;;;;;7.80;5.07;;;;;;;;;;5085702;28;20024;-59
2022/10/14 11:27:24;;;;;;;6.57;3.80;;;;;;;;;;5083001;28;20047;-56
2022/10/14 11:29:55;;;;;;;6.93;3.85;;;;;;;;;;5086217;28;20146;-59
2022/10/14 11:32:26;;;;;;;6.75;3.70;;;;;;;;;;5073295;28;20115;-58
2022/10/14 11:34:56;;;;;;;7.25;4.20;;;;;;;;;;5078343;28;20020;-59
2022/10/14 11:37:28;;;;;;;4.70;3.15;;;;;;;;;;5083347;28;20447;-59
2022/10/14 11:39:55;;;;;;;5.70;4.13;;;;;;;;;;5074045;28;20580;-58
2022/10/14 11:42:51;;;;;;;7.45;3.33;;;;;;;;;;5081128;28;20103;-59
2022/10/14 11:45:35;;;;;;;4.72;3.60;;;;;;;;;;5072258;28;20036;-57
2022/10/14 11:48:07;;;;;;;7.55;3.40;;;;;;;;;;5076629;28;20074;-57
2022/10/14 11:50:35;;;;;;;7.07;4.70;;;;;;;;;;5081554;28;20580;-57
2022/10/14 11:53:12;;;;;;;5.15;3.40;;;;;;;;;;5072665;28;20035;-57
2022/10/14 11:55:54;;;;;;;7.82;3.40;;;;;;;;;;5083274;28;20016;-57
2022/10/14 11:58:21;;;;;;;5.30;2.78;;;;;;;;;;5087321;28;20027;-57
2022/10/14 12:00:47;;;;;;;4.05;2.58;;;;;;;;;;5084674;28;20074;-57
2022/10/14 12:03:12;;;;;;;6.82;3.20;;;;;;;;;;5090030;28;20471;-57
2022/10/14 12:05:37;;;;;;;5.38;3.15;;;;;;;;;;5073516;28;20036;-57
2022/10/14 12:08:24;;;;;;;6.95;4.88;;;;;;;;;;5077690;28;20358;-57
2022/10/14 12:10:54;;;;;;;7.35;4.00;;;;;;;;;;5058316;28;20147;-57
2022/10/14 12:13:21;;;;;;;4.88;2.85;;;;;;;;;;5072537;28;20035;-57
2022/10/14 12:15:48;;;;;;;4.93;2.50;;;;;;;;;;5071223;28;20028;-57
2022/10/14 12:18:13;;;;;;;3.72;2.30;;;;;;;;;;5078372;28;20501;-57
2022/10/14 12:20:43;;;;;;;4.05;2.33;;;;;;;;;;5078450;28;20154;-58
2022/10/14 12:23:09;;;;;;;3.85;2.30;;;;;;;;;;5080973;28;20029;-58
2022/10/14 12:25:47;;;;;;;4.72;2.40;;;;;;;;;;5083963;28;20489;-58
2022/10/14 12:28:17;;;;;;;3.78;2.20;;;;;;;;;;5096263;28;20067;-58
2022/10/14 12:30:43;;;;;;;7.93;2.30;;;;;;;;;;5081074;28;20099;-57
2022/10/14 12:33:09;;;;;;;3.97;2.40;;;;;;;;;;5086413;28;20123;-57
2022/10/14 12:35:46;;;;;;;3.75;2.33;;;;;;;;;;5087667;28;20367;-58
2022/10/14 12:38:11;;;;;;;5.00;2.47;;;;;;;;;;5079305;28;20108;-58
2022/10/14 12:40:37;;;;;;;5.30;2.00;;;;;;;;;;5075719;28;20095;-57
2022/10/14 12:43:03;;;;;;;6.22;2.60;;;;;;;;;;5079181;28;20543;-57
2022/10/14 12:45:29;;;;;;;5.18;2.22;;;;;;;;;;5074182;28;20024;-58
2022/10/14 12:48:05;;;;;;;10.25;2.55;;;;;;;;;;5080548;28;20525;-58
2022/10/14 12:50:33;;;;;;;3.30;2.40;;;;;;;;;;5081837;28;20059;-58
2022/10/14 12:53:02;;;;;;;5.03;2.60;;;;;;;;;;5076970;28;20119;-57
2022/10/14 12:55:28;;;;;;;3.60;2.15;;;;;;;;;;5072768;28;20016;-57
2022/10/14 12:57:57;;;;;;;2.97;2.33;;;;;;;;;;5068524;28;20031;-57
2022/10/14 13:00:22;;;;;;;3.15;2.28;;;;;;;;;;5075379;28;20028;-58
2022/10/14 13:02:52;;;;;;;3.80;2.38;;;;;;;;;;5074382;28;20083;-58
2022/10/14 13:05:40;;;;;;;3.92;2.03;;;;;;;;;;5074624;28;20363;-57
2022/10/14 13:08:14;;;;;;;4.55;2.72;;;;;;;;;;5069317;28;20028;-57
2022/10/14 13:10:42;;;;;;;4.10;2.40;;;;;;;;;;5094325;28;20024;-59
2022/10/14 13:13:26;;;;;;;4.90;2.50;;;;;;;;;;5079449;28;20060;-58
2022/10/14 13:15:52;;;;;;;3.30;2.20;;;;;;;;;;5078664;28;20024;-57
2022/10/14 13:18:37;;;;;;;4.47;2.20;;;;;;;;;;5081074;28;20027;-57
2022/10/14 13:21:03;;;;;;;3.65;1.90;;;;;;;;;;5072653;28;20028;-58
2022/10/14 13:23:37;;;;;;;3.00;1.80;;;;;;;;;;5073466;28;20035;-57
2022/10/14 13:26:08;;;;;;;4.63;1.75;;;;;;;;;;5075649;28;20070;-58
2022/10/14 13:28:52;;;;;;;5.03;1.90;;;;;;;;;;5076695;28;20038;-58
2022/10/14 13:31:21;;;;;;;5.20;1.83;;;;;;;;;;5083617;28;20026;-58
2022/10/14 13:33:48;;;;;;;2.50;1.70;;;;;;;;;;5079179;28;20040;-58
2022/10/14 13:36:25;;;;;;;6.30;2.15;;;;;;;;;;5085632;28;20246;-58
2022/10/14 13:38:51;;;;;;;2.17;1.60;;;;;;;;;;5081156;28;20075;-58
2022/10/14 13:41:23;;;;;;;3.75;1.92;;;;;;;;;;5080745;28;20028;-56
2022/10/14 13:43:48;;;;;;;3.30;1.65;;;;;;;;;;5073772;28;20054;-56
2022/10/14 13:46:20;;;;;;;5.18;1.70;;;;;;;;;;5080864;28;20028;-58
2022/10/14 13:48:46;;;;;;;2.83;1.90;;;;;;;;;;5081898;28;20029;-58
2022/10/14 13:51:11;;;;;;;3.63;1.65;;;;;;;;;;5093015;28;20076;-59
2022/10/14 13:53:37;;;;;;;4.22;1.65;;;;;;;;;;5089809;28;20040;-57
2022/10/14 13:56:02;;;;;;;3.92;1.70;;;;;;;;;;5070059;28;20032;-57
2022/10/14 13:58:27;;;;;;;3.00;1.90;;;;;;;;;;5075971;28;20027;-57
2022/10/14 14:00:58;;;;;;;4.53;1.90;;;;;;;;;;5074482;28;20074;-57
2022/10/14 14:03:40;;;;;;;3.03;2.17;;;;;;;;;;5072762;28;20092;-57
2022/10/14 14:06:15;;;;;;;3.38;2.13;;;;;;;;;;5068735;28;20068;-57
2022/10/14 14:08:47;;;;;;;2.20;1.80;;;;;;;;;;5091136;28;20015;-58
2022/10/14 14:11:19;;;;;;;3.53;1.83;;;;;;;;;;5082781;28;20393;-58
2022/10/14 14:13:46;;;;;;;3.30;2.08;;;;;;;;;;5087215;28;20032;-58
2022/10/14 14:16:22;;;;;;;2.15;1.58;;;;;;;;;;5087769;28;20509;-58
2022/10/14 14:18:47;;;;;;;3.33;2.00;;;;;;;;;;5082200;28;20035;-58
2022/10/14 14:21:13;;;;;;;3.60;2.10;;;;;;;;;;5089404;28;20023;-58
2022/10/14 14:23:51;;;;;;;3.55;2.17;;;;;;;;;;5086571;28;20020;-58
2022/10/14 14:26:16;;;;;;;5.13;2.63;;;;;;;;;;5082387;28;20016;-58
2022/10/14 14:28:43;;;;;;;3.47;2.00;;;;;;;;;;5094347;28;20074;-58
2022/10/14 14:31:13;;;;;;;3.50;1.98;;;;;;;;;;5082047;28;20031;-58
2022/10/14 14:33:38;;;;;;;3.13;2.22;;;;;;;;;;5083758;28;20128;-58
2022/10/14 14:36:04;;;;;;;4.15;2.22;;;;;;;;;;5092175;28;20040;-58
2022/10/14 14:38:33;;;;;;;4.72;3.42;;;;;;;;;;5073785;28;20056;-57
2022/10/14 14:41:05;;;;;;;3.28;2.30;;;;;;;;;;5076294;28;20020;-57